Akutan, Alaska
Current Conditions -  °F | °C
As of 6:55 AM on Friday 28 Nov 2014 (Local Time) from PAUT Reporting Station
Clear Clear  
Wind Chill: 32°   Ceiling: Unl
Heat Index: 36°   Visibility: 10mi
Dew Point: 30°   Wind: 5mph
Humidity: 80%   Direction: 270°W
Pressure: 29.98"   Gusts: NA
Location:  54.14°N, 165.77°W
Report Text: PAUT 281555Z AUTO 27004KT 10SM CLR 02/M01 A2998 RMK AO2 T00221010
Loading
Personal Weather Stations






























Interactive Weather Map New forecast layout! Learn more

10-Day Weather Forecast

Advertisements
Track Severe Weather on mobile